createdAt,value
2023-03-22T00:01:23.439Z,10.10
2023-03-22T00:03:52.837Z,10.10
2023-03-22T00:06:20.410Z,10.10
2023-03-22T00:08:51.269Z,10.10
2023-03-22T00:11:20.698Z,10.20
2023-03-22T00:13:48.141Z,10.10
2023-03-22T00:16:15.418Z,10.20
2023-03-22T00:18:42.321Z,10.20
2023-03-22T00:21:14.198Z,10.20
2023-03-22T00:23:41.495Z,10.20
2023-03-22T00:26:10.438Z,10.20
2023-03-22T00:28:37.612Z,10.10
2023-03-22T00:31:05.656Z,10.10
2023-03-22T00:33:33.166Z,10.10
2023-03-22T00:36:08.041Z,10.10
2023-03-22T00:38:42.765Z,10.10
2023-03-22T00:41:22.058Z,10.10
2023-03-22T00:43:51.109Z,10.10
2023-03-22T00:46:20.955Z,10.10
2023-03-22T00:48:49.132Z,10.10
2023-03-22T00:51:17.105Z,10.10
2023-03-22T00:53:44.688Z,10.10
2023-03-22T00:56:16.188Z,10.00
2023-03-22T00:58:43.838Z,10.00
2023-03-22T01:01:13.913Z,10.00
2023-03-22T01:03:43.439Z,10.00
2023-03-22T01:06:11.339Z,10.10
2023-03-22T01:08:39.447Z,10.00
2023-03-22T01:11:08.544Z,10.10
2023-03-22T01:13:41.688Z,10.10
2023-03-22T01:16:10.592Z,10.10
2023-03-22T01:18:37.559Z,10.00
2023-03-22T01:21:05.902Z,10.10
2023-03-22T01:23:32.920Z,10.10
2023-03-22T01:26:01.302Z,10.10
2023-03-22T01:28:29.001Z,10.10
2023-03-22T01:30:56.992Z,10.10
2023-03-22T01:33:23.867Z,10.10
2023-03-22T01:35:51.046Z,10.10
2023-03-22T01:38:18.019Z,10.10
2023-03-22T01:40:44.884Z,10.20
2023-03-22T01:43:17.222Z,10.20
2023-03-22T01:45:47.582Z,10.30
2023-03-22T01:48:35.452Z,10.30
2023-03-22T01:51:13.627Z,10.30
2023-03-22T01:53:52.973Z,10.30
2023-03-22T01:56:26.865Z,10.30
2023-03-22T01:58:55.461Z,10.30
2023-03-22T02:01:24.422Z,10.30
2023-03-22T02:04:07.211Z,10.30
2023-03-22T02:06:38.198Z,10.30
2023-03-22T02:09:17.362Z,10.30
2023-03-22T02:11:57.614Z,10.40
2023-03-22T02:15:19.957Z,10.40
2023-03-22T02:18:07.205Z,10.40
2023-03-22T02:21:11.493Z,10.40
2023-03-22T02:23:47.214Z,10.40
2023-03-22T02:27:00.141Z,10.40
2023-03-22T02:29:45.069Z,10.30
2023-03-22T02:32:30.527Z,10.20
2023-03-22T02:35:15.850Z,10.20
2023-03-22T02:38:20.186Z,10.30
2023-03-22T02:41:08.451Z,10.20
2023-03-22T02:44:33.159Z,10.20
2023-03-22T02:47:13.943Z,10.30
2023-03-22T02:49:56.755Z,10.20
2023-03-22T02:52:45.361Z,10.20
2023-03-22T02:55:41.786Z,10.10
2023-03-22T02:58:26.869Z,10.10
2023-03-22T03:01:05.851Z,10.10
2023-03-22T03:03:37.568Z,10.00
2023-03-22T03:06:16.516Z,10.00
2023-03-22T03:08:47.569Z,10.10
2023-03-22T03:11:14.420Z,10.10
2023-03-22T03:13:41.936Z,10.00
2023-03-22T03:16:17.251Z,10.10
2023-03-22T03:18:53.920Z,10.00
2023-03-22T03:21:36.469Z,9.90
2023-03-22T03:24:03.218Z,10.00
2023-03-22T03:26:44.618Z,10.00
2023-03-22T03:29:40.216Z,10.00
2023-03-22T03:32:35.185Z,10.00
2023-03-22T03:35:22.297Z,10.00
2023-03-22T03:38:02.976Z,9.90
2023-03-22T03:40:38.950Z,9.90
2023-03-22T03:43:07.384Z,9.90
2023-03-22T03:45:37.738Z,9.90
2023-03-22T03:48:11.745Z,9.80
2023-03-22T03:50:38.898Z,9.90
2023-03-22T03:53:06.149Z,9.80
2023-03-22T03:55:34.038Z,9.80
2023-03-22T03:58:00.882Z,9.80
2023-03-22T04:00:27.987Z,9.80
2023-03-22T04:02:54.884Z,9.80
2023-03-22T04:05:21.759Z,9.80
2023-03-22T04:07:48.627Z,9.90
2023-03-22T04:10:15.542Z,9.80
2023-03-22T04:12:42.387Z,9.70
2023-03-22T04:15:12.024Z,9.70
2023-03-22T04:17:40.220Z,9.70
2023-03-22T04:20:12.445Z,9.80
2023-03-22T04:22:40.994Z,9.80
2023-03-22T04:25:13.400Z,9.80
2023-03-22T04:27:42.072Z,9.80
2023-03-22T04:30:18.774Z,9.80
2023-03-22T04:32:47.337Z,9.70
2023-03-22T04:35:16.063Z,9.70
2023-03-22T04:37:43.231Z,9.70
2023-03-22T04:40:16.586Z,9.70
2023-03-22T04:42:45.530Z,9.70
2023-03-22T04:45:13.965Z,9.70
2023-03-22T04:47:41.073Z,9.70
2023-03-22T04:50:09.182Z,9.70
2023-03-22T04:52:36.133Z,9.70
2023-03-22T04:55:03.548Z,9.70
2023-03-22T04:57:30.443Z,9.70
2023-03-22T04:59:57.243Z,9.70
2023-03-22T05:02:24.114Z,9.70
2023-03-22T05:04:51.406Z,9.70
2023-03-22T05:07:18.342Z,9.70
2023-03-22T05:09:45.236Z,9.70
2023-03-22T05:12:12.224Z,9.70
2023-03-22T05:14:39.130Z,9.70
2023-03-22T05:17:06.576Z,9.80
2023-03-22T05:19:33.500Z,9.80
2023-03-22T05:22:02.069Z,9.80
2023-03-22T05:24:30.558Z,9.80
2023-03-22T05:27:01.034Z,9.80
2023-03-22T05:29:28.670Z,9.80
2023-03-22T05:31:55.716Z,9.90
2023-03-22T05:34:22.615Z,9.90
2023-03-22T05:36:51.488Z,9.90
2023-03-22T05:39:18.549Z,9.90
2023-03-22T05:41:46.099Z,9.90
2023-03-22T05:44:13.060Z,9.90
2023-03-22T05:46:40.009Z,9.90
2023-03-22T05:49:06.849Z,9.90
2023-03-22T05:51:36.792Z,9.90
2023-03-22T05:54:03.856Z,9.90
2023-03-22T05:56:30.813Z,9.90
2023-03-22T05:58:58.203Z,9.90
2023-03-22T06:01:25.490Z,9.80
2023-03-22T06:03:52.484Z,9.80
2023-03-22T06:06:19.555Z,9.80
2023-03-22T06:08:46.446Z,9.70
2023-03-22T06:11:13.409Z,9.80
2023-03-22T06:13:40.253Z,9.80
2023-03-22T06:16:07.953Z,9.80
2023-03-22T06:18:34.823Z,9.80
2023-03-22T06:21:02.057Z,9.90
2023-03-22T06:23:28.986Z,9.80
2023-03-22T06:25:56.124Z,9.80
2023-03-22T06:28:23.025Z,9.80
2023-03-22T06:30:49.914Z,9.70
2023-03-22T06:33:17.087Z,9.70
2023-03-22T06:35:43.972Z,9.70
2023-03-22T06:38:10.996Z,9.70
2023-03-22T06:40:38.307Z,9.70
2023-03-22T06:43:07.188Z,9.70
2023-03-22T06:45:35.905Z,9.60
2023-03-22T06:48:03.011Z,9.60
2023-03-22T06:50:31.060Z,9.60
2023-03-22T06:52:58.024Z,9.60
2023-03-22T06:55:25.301Z,9.50
2023-03-22T06:57:52.154Z,9.50
2023-03-22T07:00:19.531Z,9.50
2023-03-22T07:02:46.536Z,9.60
2023-03-22T07:05:13.390Z,9.60
2023-03-22T07:07:40.351Z,9.50
2023-03-22T07:10:08.432Z,9.40
2023-03-22T07:12:35.799Z,9.40
2023-03-22T07:15:03.579Z,9.40
2023-03-22T07:17:30.772Z,9.50
2023-03-22T07:19:57.754Z,9.50
2023-03-22T07:22:28.027Z,9.60
2023-03-22T07:24:58.219Z,9.60
2023-03-22T07:27:26.052Z,9.60
2023-03-22T07:29:53.101Z,9.70
2023-03-22T07:32:20.584Z,9.70
2023-03-22T07:34:50.679Z,9.70
2023-03-22T07:37:17.723Z,9.80
2023-03-22T07:39:45.081Z,9.80
2023-03-22T07:42:12.137Z,9.80
2023-03-22T07:44:40.106Z,9.80
2023-03-22T07:47:07.126Z,9.80
2023-03-22T07:49:34.087Z,9.80
2023-03-22T07:52:02.551Z,9.80
2023-03-22T07:54:33.870Z,9.80
2023-03-22T07:57:03.727Z,9.80
2023-03-22T07:59:31.237Z,9.90
2023-03-22T08:01:58.448Z,9.90
2023-03-22T08:04:26.099Z,9.90
2023-03-22T08:06:54.841Z,9.90
2023-03-22T08:09:21.690Z,9.90
2023-03-22T08:11:48.529Z,9.90
2023-03-22T08:14:17.098Z,9.90
2023-03-22T08:16:45.674Z,10.00
2023-03-22T08:19:12.661Z,10.10
2023-03-22T08:21:39.591Z,10.20
2023-03-22T08:24:07.368Z,10.30
2023-03-22T08:26:34.202Z,10.40
2023-03-22T08:29:01.051Z,10.70
2023-03-22T08:31:27.962Z,10.70
2023-03-22T08:33:54.980Z,10.80
2023-03-22T08:36:25.625Z,10.90
2023-03-22T08:38:53.040Z,10.90
2023-03-22T08:41:20.095Z,11.00
2023-03-22T08:43:46.881Z,11.00
2023-03-22T08:46:13.823Z,11.10
2023-03-22T08:48:41.686Z,11.10
2023-03-22T08:51:08.924Z,11.10
2023-03-22T08:53:35.994Z,11.20
2023-03-22T08:56:03.738Z,11.20
2023-03-22T08:58:30.895Z,11.30
2023-03-22T09:00:58.323Z,11.30
2023-03-22T09:03:25.280Z,11.30
2023-03-22T09:05:52.326Z,11.30
2023-03-22T09:08:20.459Z,11.30
2023-03-22T09:10:51.316Z,11.30
2023-03-22T09:13:20.100Z,11.30
2023-03-22T09:15:48.028Z,11.30
2023-03-22T09:18:16.260Z,11.30
2023-03-22T09:20:45.827Z,11.30
2023-03-22T09:23:15.506Z,11.20
2023-03-22T09:25:49.107Z,11.30
2023-03-22T09:28:17.022Z,11.30
2023-03-22T09:30:44.890Z,11.30
2023-03-22T09:33:12.117Z,11.40
2023-03-22T09:35:43.534Z,11.40
2023-03-22T09:38:12.208Z,11.40
2023-03-22T09:41:00.408Z,11.50
2023-03-22T09:43:34.278Z,11.60
2023-03-22T09:46:03.616Z,11.70
2023-03-22T09:48:43.235Z,11.80
2023-03-22T09:51:39.487Z,11.90
2023-03-22T09:54:50.408Z,11.90
2023-03-22T09:57:32.503Z,12.00
2023-03-22T10:00:31.242Z,12.10
2023-03-22T10:03:32.410Z,12.20
2023-03-22T10:06:13.311Z,12.30
2023-03-22T10:09:14.490Z,12.60
2023-03-22T10:11:56.283Z,12.80
2023-03-22T10:14:42.201Z,12.60
2023-03-22T10:17:18.937Z,12.50
2023-03-22T10:20:00.882Z,12.50
2023-03-22T10:22:35.408Z,12.60
2023-03-22T10:25:05.870Z,12.80
2023-03-22T10:27:36.108Z,13.10
2023-03-22T10:30:37.636Z,13.30
2023-03-22T10:33:13.488Z,13.40
2023-03-22T10:35:44.027Z,13.30
2023-03-22T10:38:24.385Z,13.30
2023-03-22T10:40:57.014Z,13.40
2023-03-22T10:43:37.904Z,13.50
2023-03-22T10:46:11.128Z,13.20
2023-03-22T10:48:45.839Z,13.30
2023-03-22T10:51:34.383Z,13.50
2023-03-22T10:54:02.557Z,13.50
2023-03-22T10:56:29.409Z,13.60
2023-03-22T10:58:57.308Z,13.60
2023-03-22T11:01:33.519Z,13.60
2023-03-22T11:04:15.118Z,13.70
2023-03-22T11:06:56.110Z,13.70
2023-03-22T11:09:24.603Z,13.70
2023-03-22T11:12:00.781Z,13.40
2023-03-22T11:14:35.690Z,13.50
2023-03-22T11:17:12.616Z,13.60
2023-03-22T11:19:53.976Z,13.70
2023-03-22T11:22:35.676Z,13.60
2023-03-22T11:25:13.617Z,13.70
2023-03-22T11:28:17.453Z,13.80
2023-03-22T11:31:00.879Z,13.90
2023-03-22T11:33:28.312Z,13.80
2023-03-22T11:35:59.301Z,13.80
2023-03-22T11:38:41.835Z,14.00
2023-03-22T11:41:22.653Z,14.00
2023-03-22T11:43:57.938Z,14.10
2023-03-22T11:46:25.552Z,14.00
2023-03-22T11:49:00.981Z,13.90
2023-03-22T11:51:46.636Z,13.90
2023-03-22T11:54:31.912Z,13.90
2023-03-22T11:57:03.850Z,13.80
2023-03-22T11:59:40.557Z,13.90
2023-03-22T12:02:31.238Z,14.00
2023-03-22T12:05:27.408Z,14.10
2023-03-22T12:08:13.410Z,14.00
2023-03-22T12:10:44.913Z,14.10
2023-03-22T12:13:31.367Z,14.00
2023-03-22T12:16:07.427Z,14.10
2023-03-22T12:18:50.428Z,14.10
2023-03-22T12:21:17.340Z,14.10
2023-03-22T12:23:44.349Z,14.30
2023-03-22T12:26:27.938Z,14.30
2023-03-22T12:29:15.468Z,14.40
2023-03-22T12:32:19.742Z,14.50
2023-03-22T12:34:54.926Z,14.40
2023-03-22T12:37:35.348Z,14.30
2023-03-22T12:40:16.307Z,14.20
2023-03-22T12:42:59.643Z,14.10
2023-03-22T12:45:31.689Z,14.30
2023-03-22T12:48:16.024Z,14.40
2023-03-22T12:51:02.061Z,14.40
2023-03-22T12:53:42.294Z,14.10
2023-03-22T12:56:17.728Z,14.20
2023-03-22T12:58:54.593Z,14.50
2023-03-22T13:01:39.565Z,14.50
2023-03-22T13:04:35.967Z,14.60
2023-03-22T13:07:30.491Z,14.50
2023-03-22T13:10:00.214Z,14.40
2023-03-22T13:12:32.142Z,14.50
2023-03-22T13:15:04.270Z,14.60
2023-03-22T13:17:33.465Z,14.50
2023-03-22T13:20:11.374Z,14.50
2023-03-22T13:22:38.254Z,14.40
2023-03-22T13:25:12.909Z,14.50
2023-03-22T13:27:45.950Z,14.70
2023-03-22T13:30:52.596Z,14.70
2023-03-22T13:33:32.870Z,14.70
2023-03-22T13:36:24.908Z,14.70
2023-03-22T13:38:59.347Z,14.80
2023-03-22T13:41:34.804Z,14.80
2023-03-22T13:44:26.866Z,14.80
2023-03-22T13:47:01.196Z,14.80
2023-03-22T13:49:49.572Z,14.80
2023-03-22T13:53:02.209Z,14.90
2023-03-22T13:55:51.814Z,15.00
2023-03-22T13:58:36.379Z,15.00
2023-03-22T14:01:13.173Z,15.10
2023-03-22T14:03:45.612Z,15.00
2023-03-22T14:06:28.769Z,15.00
2023-03-22T14:09:09.793Z,15.20
2023-03-22T14:11:54.826Z,15.10
2023-03-22T14:14:32.350Z,15.00
2023-03-22T14:17:13.139Z,15.10
2023-03-22T14:19:42.227Z,15.20
